Time;durP1;ratioP1;P1;durP2;ratioP2;P2;SDS_P1;SDS_P2;PMS_P1;PMS_P2;Temp;Humidity;BMP_temperature;BMP_pressure;BME280_temperature;BME280_humidity;BME280_pressure;Samples;Min_cycle;Max_cycle;Signal;HPM_P1;HPM_P2
2021/06/18 00:00:16;;;;;;;20.40;12.05;;;;;;;16.19;86.34;94093.91;6194077;23;20017;-86
2021/06/18 00:02:48;;;;;;;17.83;12.35;;;;;;;16.06;86.65;94093.00;6166941;23;20017;-85
2021/06/18 00:05:14;;;;;;;16.25;12.30;;;;;;;16.00;87.23;94099.59;6167683;23;20154;-88
2021/06/18 00:07:43;;;;;;;12.95;10.80;;;;;;;16.02;87.02;94087.53;6198993;23;20555;-86
2021/06/18 00:10:10;;;;;;;12.57;10.45;;;;;;;16.10;86.67;94077.16;6203274;23;20241;-86
2021/06/18 00:12:36;;;;;;;15.02;10.32;;;;;;;15.92;87.42;94073.72;6167435;23;20351;-87
2021/06/18 00:15:04;;;;;;;14.50;10.30;;;;;;;15.72;87.77;94053.03;6176999;23;20020;-87
2021/06/18 00:17:29;;;;;;;12.25;10.95;;;;;;;15.76;87.98;94062.75;6197140;23;20024;-87
2021/06/18 00:19:55;;;;;;;16.70;10.80;;;;;;;15.67;88.61;94051.31;6193599;23;20088;-86
2021/06/18 00:22:21;;;;;;;11.70;10.30;;;;;;;15.81;88.13;94054.59;6192180;23;20490;-86
2021/06/18 00:24:46;;;;;;;14.75;10.20;;;;;;;15.89;88.08;94061.78;6204897;23;20007;-85
2021/06/18 00:27:12;;;;;;;14.13;10.18;;;;;;;15.86;88.09;94051.78;6194058;23;20293;-86
2021/06/18 00:29:37;;;;;;;14.52;9.23;;;;;;;15.98;87.33;94059.91;6197490;23;20023;-84
2021/06/18 00:32:06;;;;;;;16.25;10.13;;;;;;;15.87;87.47;94064.00;6200736;23;20028;-85
2021/06/18 00:34:31;;;;;;;12.90;9.27;;;;;;;15.98;87.14;94075.91;6185056;23;20012;-85
2021/06/18 00:36:57;;;;;;;11.35;9.45;;;;;;;15.80;87.37;94070.91;6208366;23;20015;-86
2021/06/18 00:39:22;;;;;;;12.40;10.05;;;;;;;15.73;87.69;94074.03;6151268;23;20415;-88
2021/06/18 00:41:48;;;;;;;14.18;10.63;;;;;;;16.01;86.80;94085.94;6198113;23;20024;-88
2021/06/18 00:44:16;;;;;;;18.85;10.63;;;;;;;15.89;87.02;94082.34;6190871;23;20013;-87
2021/06/18 00:46:43;;;;;;;15.40;12.38;;;;;;;15.86;87.32;94075.75;6200343;23;20016;-86
2021/06/18 00:49:11;;;;;;;14.00;10.73;;;;;;;15.76;87.65;94062.75;6193459;23;20000;-87
2021/06/18 00:51:38;;;;;;;15.93;12.05;;;;;;;15.84;87.60;94064.63;6197119;23;20367;-86
2021/06/18 00:54:07;;;;;;;12.95;11.48;;;;;;;15.72;87.96;94061.81;6168012;23;20430;-85
2021/06/18 00:56:33;;;;;;;16.25;12.45;;;;;;;15.66;88.55;94057.72;6194973;23;20016;-82
2021/06/18 00:58:59;;;;;;;17.38;14.02;;;;;;;15.66;88.82;94060.41;6167577;23;20343;-86
2021/06/18 01:01:27;;;;;;;15.40;13.80;;;;;;;15.77;88.31;94059.00;6165376;23;20020;-86
2021/06/18 01:03:53;;;;;;;17.33;13.70;;;;;;;15.77;88.23;94053.66;6188257;23;106719;-86
2021/06/18 01:06:28;;;;;;;15.98;13.68;;;;;;;15.80;88.27;94049.56;6167716;23;20407;-86
2021/06/18 01:09:01;;;;;;;14.02;12.52;;;;;;;15.94;87.74;94056.31;6197070;23;20459;-85
2021/06/18 01:11:55;;;;;;;16.10;12.50;;;;;;;15.97;87.46;94057.56;6197609;23;20641;-86
2021/06/18 01:14:44;;;;;;;12.63;11.32;;;;;;;15.97;86.99;94061.03;6167174;23;20071;-87
2021/06/18 01:17:17;;;;;;;14.00;12.50;;;;;;;15.93;87.13;94068.06;6198581;23;20477;-86
2021/06/18 01:20:10;;;;;;;14.52;12.00;;;;;;;15.81;87.63;94059.16;6203406;23;20486;-86
2021/06/18 01:22:37;;;;;;;18.13;12.93;;;;;;;15.68;88.35;94060.09;6188964;23;20443;-81
2021/06/18 01:25:37;;;;;;;17.35;12.55;;;;;;;15.76;88.71;94049.44;6206482;23;20005;-81
2021/06/18 01:28:22;;;;;;;18.73;13.93;;;;;;;15.74;88.19;94032.97;6193281;23;20526;-86
2021/06/18 01:30:50;;;;;;;16.15;12.68;;;;;;;15.86;88.06;94049.13;6194221;23;20119;-82
2021/06/18 01:33:29;;;;;;;15.35;12.05;;;;;;;15.87;87.84;94042.69;6193805;23;20111;-86
2021/06/18 01:36:01;;;;;;;15.38;11.43;;;;;;;15.87;87.54;94042.69;6191925;23;20013;-86
2021/06/18 01:38:33;;;;;;;13.95;11.25;;;;;;;15.80;87.80;94037.03;6185087;23;20031;-87
2021/06/18 01:41:02;;;;;;;15.02;11.75;;;;;;;15.91;87.82;94048.16;6171573;23;20013;-84
2021/06/18 01:43:30;;;;;;;13.10;11.65;;;;;;;15.99;87.25;94048.16;6153305;23;20009;-86
2021/06/18 01:45:57;;;;;;;11.75;10.65;;;;;;;16.08;86.62;94058.03;6170387;23;20058;-86
2021/06/18 01:48:24;;;;;;;17.05;11.20;;;;;;;16.10;86.24;94064.59;6193732;23;20036;-86
2021/06/18 01:50:53;;;;;;;14.52;10.70;;;;;;;15.90;87.06;94063.38;6192298;23;20016;-87
2021/06/18 01:53:22;;;;;;;13.05;10.85;;;;;;;15.84;87.09;94043.31;6198013;23;20044;-87
2021/06/18 01:55:49;;;;;;;12.60;9.98;;;;;;;15.73;87.55;94049.28;6200815;23;20021;-88
2021/06/18 01:58:18;;;;;;;10.52;9.40;;;;;;;15.92;86.91;94044.41;6193176;23;20009;-87
2021/06/18 02:00:46;;;;;;;10.60;9.48;;;;;;;15.81;87.00;94053.81;6170717;23;20499;-86
2021/06/18 02:03:16;;;;;;;11.40;8.65;;;;;;;15.83;86.74;94039.06;6198678;23;20028;-81
2021/06/18 02:05:44;;;;;;;14.40;10.77;;;;;;;15.70;87.38;94041.91;6199728;23;20024;-86
2021/06/18 02:08:11;;;;;;;10.38;8.73;;;;;;;15.86;87.13;94051.00;6202858;23;20016;-86
2021/06/18 02:16:38;;;;;;;;;;;;;;;15.81;86.99;94064.47;6105042;23;20092;-78
2021/06/18 02:19:06;;;;;;;13.40;10.07;;;;;;;15.83;86.89;94063.03;6140266;23;19919;-78
2021/06/18 02:21:33;;;;;;;11.82;10.32;;;;;;;15.69;86.67;94046.44;6142435;23;20085;-78
2021/06/18 02:24:00;;;;;;;13.98;9.65;;;;;;;15.83;86.62;94054.28;6142531;23;20021;-78
2021/06/18 02:26:26;;;;;;;12.55;8.88;;;;;;;15.95;86.58;94060.53;6139413;23;20076;-78
2021/06/18 02:28:53;;;;;;;10.55;8.23;;;;;;;15.87;86.65;94057.91;6138856;23;20020;-78
2021/06/18 02:31:21;;;;;;;12.20;8.93;;;;;;;15.87;86.53;94061.34;6139199;23;20002;-78
2021/06/18 02:33:47;;;;;;;12.68;9.10;;;;;;;15.89;86.38;94061.78;6115247;23;20013;-78
2021/06/18 02:36:12;;;;;;;11.35;9.02;;;;;;;15.83;86.45;94065.72;6140371;23;20121;-78
2021/06/18 02:38:38;;;;;;;15.13;9.85;;;;;;;15.74;86.49;94054.28;6140244;23;20025;-79
2021/06/18 02:41:04;;;;;;;9.23;7.97;;;;;;;15.81;86.70;94061.81;6145446;23;20018;-79
2021/06/18 02:43:29;;;;;;;11.05;8.30;;;;;;;15.93;86.09;94053.97;6146189;23;20009;-79
2021/06/18 02:45:54;;;;;;;10.23;8.10;;;;;;;15.96;86.04;94061.34;6152335;23;19997;-79
2021/06/18 02:48:26;;;;;;;9.65;8.13;;;;;;;15.91;85.74;94054.28;6114347;23;20025;-79
2021/06/18 02:51:05;;;;;;;10.23;7.70;;;;;;;15.99;85.66;94060.69;6143319;23;20017;-78
2021/06/18 02:53:43;;;;;;;11.32;7.85;;;;;;;15.97;85.73;94058.34;6113149;23;20017;-78
2021/06/18 02:56:14;;;;;;;12.10;8.18;;;;;;;16.02;85.34;94052.88;6114698;23;20071;-78
2021/06/18 02:59:04;;;;;;;10.95;6.95;;;;;;;16.26;84.71;94062.22;6146294;23;20009;-78
2021/06/18 03:01:37;;;;;;;7.68;6.95;;;;;;;16.08;84.99;94072.13;6149385;23;20064;-78
2021/06/18 03:04:03;;;;;;;11.27;7.88;;;;;;;15.96;85.21;94067.44;6151997;23;20064;-78
2021/06/18 03:06:31;;;;;;;14.40;12.30;;;;;;;15.91;85.46;94075.59;6140212;23;20016;-78
2021/06/18 03:09:03;;;;;;;18.73;13.93;;;;;;;15.92;86.11;94071.06;6139887;23;20052;-79
2021/06/18 03:11:35;;;;;;;28.73;13.10;;;;;;;15.94;86.78;94080.28;6139739;23;20026;-79
2021/06/18 03:14:05;;;;;;;16.05;12.38;;;;;;;16.05;86.53;94078.09;6138916;23;20017;-78
2021/06/18 03:16:33;;;;;;;14.05;12.23;;;;;;;16.06;86.59;94081.56;6123490;23;20021;-78
2021/06/18 03:19:04;;;;;;;16.52;12.90;;;;;;;16.04;86.66;94085.31;6087242;23;20033;-79
2021/06/18 03:21:32;;;;;;;19.30;13.07;;;;;;;16.19;86.28;94080.59;6112059;23;20108;-78
2021/06/18 03:23:59;;;;;;;15.60;11.07;;;;;;;16.22;86.05;94063.97;6083560;23;20013;-78
2021/06/18 03:26:25;;;;;;;16.13;13.20;;;;;;;16.32;86.10;94085.72;6112110;23;20464;-78
2021/06/18 03:28:53;;;;;;;18.30;13.18;;;;;;;16.39;85.91;94088.72;6115983;23;20018;-79
2021/06/18 03:31:20;;;;;;;19.70;15.80;;;;;;;16.31;86.18;94080.75;6105616;23;19998;-78
2021/06/18 03:33:47;;;;;;;17.30;14.98;;;;;;;16.41;86.39;94083.06;6121274;23;20001;-78
2021/06/18 03:36:16;;;;;;;17.73;15.35;;;;;;;16.41;86.43;94078.53;6107858;23;20088;-78
2021/06/18 03:38:43;;;;;;;21.35;16.60;;;;;;;16.52;86.39;94078.94;6109342;23;20036;-78
2021/06/18 03:41:09;;;;;;;30.73;18.30;;;;;;;16.53;86.42;94072.50;6115079;23;20405;-78
2021/06/18 03:43:35;;;;;;;20.77;16.23;;;;;;;16.55;86.53;94088.22;6111781;23;20100;-78
2021/06/18 03:46:04;;;;;;;24.60;16.58;;;;;;;16.57;86.48;94073.44;6112384;23;20002;-79
2021/06/18 03:48:31;;;;;;;21.00;17.15;;;;;;;16.75;86.49;94080.34;6111850;23;20483;-78
2021/06/18 03:50:58;;;;;;;22.85;18.55;;;;;;;16.83;86.62;94086.72;6112466;23;20025;-79
2021/06/18 03:53:24;;;;;;;19.38;16.20;;;;;;;16.98;86.07;94080.06;6114606;23;20018;-78
2021/06/18 03:55:49;;;;;;;31.05;22.80;;;;;;;17.02;85.67;94089.78;6109012;23;20064;-79
2021/06/18 03:58:19;;;;;;;37.28;25.33;;;;;;;17.19;84.85;94095.06;6111722;23;20056;-79
2021/06/18 04:00:48;;;;;;;37.67;25.15;;;;;;;17.28;84.63;94105.69;6111543;23;20480;-79
2021/06/18 04:03:15;;;;;;;38.03;26.27;;;;;;;17.42;84.47;94114.25;6108145;23;20021;-78
2021/06/18 04:05:43;;;;;;;40.88;24.67;;;;;;;17.56;84.21;94106.00;6111245;23;20014;-78
2021/06/18 04:08:13;;;;;;;38.55;25.17;;;;;;;17.70;83.24;94101.22;6081982;23;20018;-79
2021/06/18 04:10:39;;;;;;;38.58;26.20;;;;;;;17.96;82.46;94101.81;6110038;23;20014;-79
2021/06/18 04:13:07;;;;;;;35.30;23.90;;;;;;;17.74;82.03;94097.56;6106456;23;20411;-79
2021/06/18 04:15:33;;;;;;;37.95;24.20;;;;;;;18.07;81.48;94088.84;6110893;23;20021;-79
2021/06/18 04:17:59;;;;;;;33.08;21.55;;;;;;;18.62;79.18;94082.38;6082397;23;20064;-78
2021/06/18 04:20:25;;;;;;;30.95;21.15;;;;;;;19.07;76.78;94072.34;6108365;23;20045;-79
2021/06/18 04:22:52;;;;;;;28.98;20.35;;;;;;;19.62;75.77;94079.06;6107393;23;20407;-79
2021/06/18 04:25:18;;;;;;;26.55;18.83;;;;;;;20.03;73.82;94080.63;6118101;23;20005;-79
2021/06/18 04:27:44;;;;;;;23.55;17.92;;;;;;;20.43;71.95;94080.63;6112748;23;20318;-79
2021/06/18 04:30:12;;;;;;;25.60;19.75;;;;;;;20.37;71.13;94082.78;6109256;23;20014;-79
2021/06/18 04:32:38;;;;;;;27.70;19.60;;;;;;;20.23;71.24;94090.41;6112553;23;20020;-80
2021/06/18 04:35:05;;;;;;;25.00;19.05;;;;;;;20.17;71.36;94087.19;6109305;23;20092;-79
2021/06/18 04:37:33;;;;;;;24.92;19.33;;;;;;;20.29;71.04;94087.13;6109482;23;20025;-79
2021/06/18 04:39:58;;;;;;;26.10;17.75;;;;;;;20.40;69.89;94082.06;6121322;23;20017;-79
2021/06/18 04:42:24;;;;;;;22.88;18.70;;;;;;;20.41;69.24;94080.97;6108827;23;20025;-79
2021/06/18 04:44:49;;;;;;;26.27;19.08;;;;;;;20.43;69.43;94094.06;6107053;23;20022;-79
2021/06/18 04:47:15;;;;;;;25.48;19.08;;;;;;;20.56;68.41;94090.19;6112951;23;20448;-79
2021/06/18 04:49:40;;;;;;;21.73;16.45;;;;;;;20.60;68.61;94091.03;6115210;23;20093;-79
2021/06/18 04:52:07;;;;;;;21.77;16.23;;;;;;;20.60;67.38;94091.03;6118758;23;20005;-79
2021/06/18 04:54:32;;;;;;;22.02;16.98;;;;;;;20.58;67.74;94080.63;6112803;23;20105;-79
2021/06/18 04:56:58;;;;;;;26.40;18.50;;;;;;;20.60;69.37;94104.47;6111574;23;20097;-79
2021/06/18 04:59:24;;;;;;;25.70;18.15;;;;;;;20.44;69.38;94096.38;6113761;23;20033;-79
2021/06/18 05:01:49;;;;;;;22.02;17.48;;;;;;;20.52;69.13;94106.19;6115482;23;20291;-79
2021/06/18 05:04:15;;;;;;;25.55;17.98;;;;;;;20.42;69.41;94108.59;6083905;23;20005;-79
2021/06/18 05:06:40;;;;;;;28.58;20.05;;;;;;;20.46;69.09;94093.34;6121745;23;20001;-79
2021/06/18 05:09:06;;;;;;;26.65;18.52;;;;;;;20.48;70.09;94101.84;6085041;23;20507;-79
2021/06/18 05:11:31;;;;;;;21.90;17.17;;;;;;;20.83;68.07;94110.81;6114241;23;20101;-79
2021/06/18 05:13:57;;;;;;;25.98;17.38;;;;;;;21.00;67.17;94107.03;6117271;23;20029;-79
2021/06/18 05:16:25;;;;;;;28.25;17.30;;;;;;;21.14;65.93;94108.19;6113482;23;21529;-79
2021/06/18 05:18:51;;;;;;;24.50;17.95;;;;;;;21.28;67.09;94105.06;6122540;23;20024;-79
2021/06/18 05:21:16;;;;;;;17.90;14.90;;;;;;;21.60;65.72;94100.41;6110784;23;20096;-79
2021/06/18 05:23:43;;;;;;;22.15;17.75;;;;;;;21.79;63.69;94116.63;6109673;23;20018;-79
2021/06/18 05:26:08;;;;;;;16.38;13.32;;;;;;;21.63;63.45;94102.44;6118671;23;20641;-79
2021/06/18 05:28:34;;;;;;;22.95;15.15;;;;;;;21.57;64.57;94117.28;6109988;23;20018;-79
2021/06/18 05:30:59;;;;;;;18.88;15.10;;;;;;;21.49;65.36;94102.13;6088209;23;20010;-79
2021/06/18 05:33:25;;;;;;;20.75;15.45;;;;;;;21.60;64.88;94113.88;6085838;23;20021;-79
2021/06/18 05:35:50;;;;;;;21.20;14.85;;;;;;;21.58;64.72;94114.25;6111874;23;20014;-80
2021/06/18 05:38:16;;;;;;;19.02;15.13;;;;;;;21.60;64.46;94113.88;6111874;23;20459;-79
2021/06/18 05:40:42;;;;;;;26.13;15.68;;;;;;;21.67;64.89;94111.34;6111984;23;20093;-80
2021/06/18 05:43:11;;;;;;;18.50;14.73;;;;;;;21.75;64.50;94110.38;6109291;23;20001;-79
2021/06/18 05:45:37;;;;;;;25.42;15.93;;;;;;;22.17;63.49;94096.31;6123099;23;19998;-79
2021/06/18 05:48:06;;;;;;;22.05;15.10;;;;;;;22.76;61.67;94115.59;6111355;23;20025;-79
2021/06/18 05:50:32;;;;;;;22.08;15.77;;;;;;;23.45;58.16;94108.31;6109140;23;20022;-79
2021/06/18 05:52:58;;;;;;;19.65;15.52;;;;;;;23.85;58.35;94112.38;6114581;23;20006;-79
2021/06/18 05:55:24;;;;;;;24.27;15.52;;;;;;;24.66;54.79;94112.66;6108724;23;20112;-80
2021/06/18 05:57:52;;;;;;;19.23;14.73;;;;;;;25.34;52.45;94107.56;6083827;23;20088;-80
2021/06/18 06:00:19;;;;;;;18.65;14.35;;;;;;;25.69;51.17;94098.19;6104849;23;20017;-80
2021/06/18 06:02:44;;;;;;;21.05;13.82;;;;;;;26.44;49.23;94099.41;6113342;23;20399;-80
2021/06/18 06:05:11;;;;;;;19.48;14.20;;;;;;;26.78;49.13;94099.91;6107811;23;20169;-79
2021/06/18 06:07:37;;;;;;;22.40;14.65;;;;;;;26.92;48.29;94100.75;6110152;23;20013;-80
2021/06/18 06:10:04;;;;;;;19.65;14.80;;;;;;;27.38;47.24;94095.38;6109991;23;20232;-80
2021/06/18 06:12:30;;;;;;;14.77;12.15;;;;;;;27.44;46.86;94095.78;6108691;23;20293;-80
2021/06/18 06:14:55;;;;;;;20.08;13.23;;;;;;;27.26;47.16;94095.00;6106576;23;20618;-80
2021/06/18 06:17:23;;;;;;;17.40;12.38;;;;;;;27.09;47.11;94091.88;6107011;23;20464;-81
2021/06/18 06:19:51;;;;;;;16.15;12.50;;;;;;;27.11;47.23;94084.13;6118359;23;20073;-82
2021/06/18 06:22:17;;;;;;;14.38;12.75;;;;;;;27.37;46.49;94087.63;6107649;23;20428;-80
2021/06/18 06:24:43;;;;;;;16.30;12.35;;;;;;;27.83;45.65;94072.09;6113210;23;20013;-81
2021/06/18 06:27:08;;;;;;;13.45;11.38;;;;;;;28.99;43.97;94074.78;6110993;23;20117;-81
2021/06/18 06:29:34;;;;;;;15.32;11.23;;;;;;;29.40;42.33;94073.00;6107772;23;20022;-81
2021/06/18 06:31:59;;;;;;;21.00;11.02;;;;;;;30.06;41.96;94065.38;6108581;23;20460;-81
2021/06/18 06:34:24;;;;;;;14.65;10.43;;;;;;;30.57;41.13;94071.09;6082323;23;20044;-81
2021/06/18 06:36:50;;;;;;;14.18;11.93;;;;;;;30.87;39.72;94060.16;6088290;23;20006;-81
2021/06/18 06:39:15;;;;;;;13.45;10.27;;;;;;;31.35;38.47;94060.66;6110743;23;20292;-82
2021/06/18 06:41:41;;;;;;;13.68;10.55;;;;;;;31.37;38.84;94062.97;6098597;23;20348;-81
2021/06/18 06:44:06;;;;;;;15.95;12.07;;;;;;;31.99;38.17;94070.53;6110247;23;20068;-81
2021/06/18 06:46:33;;;;;;;17.33;11.20;;;;;;;32.23;36.64;94063.84;6086571;23;20017;-82
2021/06/18 06:48:59;;;;;;;24.30;11.30;;;;;;;32.29;36.69;94071.56;6111348;23;20060;-81
2021/06/18 06:51:27;;;;;;;16.45;10.75;;;;;;;32.47;37.52;94066.50;6108814;23;20589;-83
2021/06/18 06:53:53;;;;;;;19.55;11.00;;;;;;;32.62;36.38;94068.53;6109381;23;20410;-82
2021/06/18 06:56:18;;;;;;;15.90;10.23;;;;;;;33.16;36.20;94059.22;6108770;23;20416;-82
2021/06/18 06:58:47;;;;;;;14.75;9.77;;;;;;;33.80;33.97;94045.56;6116147;23;20221;-83
2021/06/18 07:01:13;;;;;;;11.45;9.43;;;;;;;34.41;33.50;94046.69;6106326;23;20002;-83
2021/06/18 07:03:39;;;;;;;20.05;10.82;;;;;;;34.91;32.23;94055.06;6122033;23;20012;-81
2021/06/18 07:06:06;;;;;;;11.25;9.80;;;;;;;35.13;31.58;94049.72;6092589;23;20073;-85
2021/06/18 07:08:31;;;;;;;12.73;8.38;;;;;;;35.77;30.36;94047.72;6114787;23;20014;-82
2021/06/18 07:10:56;;;;;;;11.50;7.68;;;;;;;36.19;29.42;94046.28;6085481;23;20021;-85
2021/06/18 07:13:22;;;;;;;10.15;7.53;;;;;;;35.89;29.17;94044.16;6119952;23;20006;-81
2021/06/18 07:15:52;;;;;;;16.63;8.10;;;;;;;35.90;30.28;94045.69;6111743;23;20014;-80
2021/06/18 07:18:18;;;;;;;11.40;7.57;;;;;;;36.61;29.21;94037.72;6111430;23;20013;-82
2021/06/18 07:20:44;;;;;;;10.57;7.60;;;;;;;36.84;28.39;94045.53;6111694;23;20045;-80
2021/06/18 07:23:10;;;;;;;12.20;7.18;;;;;;;37.51;27.73;94026.38;6109382;23;20096;-81
2021/06/18 07:25:39;;;;;;;15.32;6.40;;;;;;;37.89;27.22;94039.81;6109157;23;20061;-82
2021/06/18 07:28:06;;;;;;;15.30;5.03;;;;;;;38.36;26.43;94027.59;6119586;23;20013;-80
2021/06/18 07:30:35;;;;;;;10.38;5.90;;;;;;;38.13;25.91;94029.72;6111545;23;20056;-81
2021/06/18 07:33:00;;;;;;;8.77;4.78;;;;;;;38.28;25.64;94038.16;6108857;23;20014;-81
2021/06/18 07:35:26;;;;;;;7.05;4.88;;;;;;;38.91;26.32;94034.59;6110755;23;20304;-82
2021/06/18 07:37:51;;;;;;;10.32;5.38;;;;;;;39.30;24.56;94023.69;6067308;23;20066;-82
2021/06/18 07:40:18;;;;;;;12.15;5.28;;;;;;;39.61;25.30;94045.53;6118814;23;20444;-83
2021/06/18 07:42:46;;;;;;;7.47;3.13;;;;;;;39.41;24.26;94035.03;6113092;23;20025;-83
2021/06/18 07:45:13;;;;;;;6.13;3.42;;;;;;;38.84;24.59;94031.38;6111929;23;20025;-82
2021/06/18 07:47:40;;;;;;;8.60;4.10;;;;;;;38.85;25.16;94025.38;6096591;23;20022;-81
2021/06/18 07:50:10;;;;;;;4.47;2.67;;;;;;;38.40;25.41;94022.66;6108482;23;20019;-82
2021/06/18 07:52:36;;;;;;;11.68;3.60;;;;;;;38.45;25.97;94019.31;6078771;23;20014;-85
2021/06/18 07:55:03;;;;;;;3.70;3.05;;;;;;;38.18;24.64;94022.81;6113055;23;20033;-81
2021/06/18 07:57:31;;;;;;;5.35;3.03;;;;;;;38.02;25.69;94032.16;6111112;23;20160;-83
2021/06/18 07:59:57;;;;;;;5.72;2.80;;;;;;;37.20;26.76;94034.69;6111151;23;20463;-81
2021/06/18 08:02:22;;;;;;;6.13;2.90;;;;;;;37.25;26.39;94025.84;6110517;23;20013;-82
2021/06/18 08:04:48;;;;;;;6.75;3.20;;;;;;;37.79;25.58;94029.97;6109278;23;20820;-81
2021/06/18 08:07:14;;;;;;;4.07;3.33;;;;;;;37.67;26.38;94028.13;6120109;23;20397;-81
2021/06/18 08:09:39;;;;;;;4.82;2.58;;;;;;;38.68;24.83;94032.47;6110919;23;20149;-81
2021/06/18 08:12:05;;;;;;;4.68;2.45;;;;;;;38.98;24.74;94034.28;6113993;23;20045;-81
2021/06/18 08:14:30;;;;;;;6.68;3.15;;;;;;;39.13;24.60;94033.59;6109043;23;20022;-80
2021/06/18 08:16:56;;;;;;;4.95;3.25;;;;;;;38.72;24.40;94027.53;6115377;23;20033;-81
2021/06/18 08:19:21;;;;;;;6.10;2.58;;;;;;;38.75;24.96;94032.16;6106194;23;20021;-82
2021/06/18 08:21:47;;;;;;;5.28;2.58;;;;;;;38.70;25.61;94024.50;6123282;23;20475;-82
2021/06/18 08:24:13;;;;;;;5.00;2.65;;;;;;;39.13;24.83;94022.53;6106469;23;20076;-82
2021/06/18 08:26:39;;;;;;;5.10;3.28;;;;;;;39.56;24.18;94022.06;6112684;23;20018;-80
2021/06/18 08:29:04;;;;;;;5.03;2.53;;;;;;;39.59;23.07;94023.09;6084878;23;20084;-81
2021/06/18 08:31:29;;;;;;;5.05;2.05;;;;;;;39.60;23.63;94027.41;6119088;23;20025;-81
2021/06/18 08:33:57;;;;;;;4.60;1.92;;;;;;;39.87;22.93;94026.50;6111071;23;20013;-81
2021/06/18 08:36:23;;;;;;;4.03;1.73;;;;;;;40.44;22.40;94008.53;6110729;23;20498;-81
2021/06/18 08:38:48;;;;;;;2.38;1.67;;;;;;;40.96;20.91;94011.72;6110015;23;20024;-81
2021/06/18 08:41:14;;;;;;;3.92;1.33;;;;;;;40.60;21.07;94019.16;6117570;23;20026;-82
2021/06/18 08:43:40;;;;;;;1.98;1.52;;;;;;;40.81;20.75;94016.53;6119731;23;20022;-81
2021/06/18 08:46:07;;;;;;;3.50;1.13;;;;;;;40.40;20.56;94016.25;6119418;23;20332;-81
2021/06/18 08:48:34;;;;;;;4.05;1.33;;;;;;;40.59;21.16;94023.16;6088882;23;20045;-82
2021/06/18 08:51:00;;;;;;;3.47;1.33;;;;;;;40.84;19.81;94021.09;6113652;23;20104;-81
2021/06/18 08:53:27;;;;;;;4.72;1.42;;;;;;;40.47;20.90;94017.88;6112863;23;20108;-81
2021/06/18 08:55:54;;;;;;;4.07;2.05;;;;;;;39.97;21.40;94019.69;6111446;23;20253;-81
2021/06/18 08:58:20;;;;;;;2.83;1.60;;;;;;;39.59;21.81;94001.75;6112592;23;20006;-82
2021/06/18 09:00:47;;;;;;;2.95;1.77;;;;;;;39.90;22.10;94011.72;6084179;23;20678;-79
2021/06/18 09:03:43;;;;;;;4.50;1.40;;;;;;;39.36;22.71;94003.25;6112248;23;20013;-81
2021/06/18 09:06:21;;;;;;;1.80;1.52;;;;;;;39.10;22.35;94010.41;6107534;23;20523;-81
2021/06/18 09:08:47;;;;;;;3.42;1.70;;;;;;;38.92;22.78;94002.97;6086091;23;20048;-81
2021/06/18 09:11:40;;;;;;;1.70;1.60;;;;;;;38.47;23.41;94003.03;6116922;23;20017;-81
2021/06/18 09:14:27;;;;;;;1.80;1.48;;;;;;;38.50;23.15;94000.13;6117406;23;20416;-82
2021/06/18 09:17:03;;;;;;;1.45;1.23;;;;;;;38.08;21.69;93997.22;6116301;23;20228;-79
2021/06/18 09:19:29;;;;;;;1.70;1.30;;;;;;;37.07;23.24;93992.72;6085355;23;20330;-81
2021/06/18 09:22:10;;;;;;;2.95;1.60;;;;;;;36.84;25.04;94006.97;6112053;23;20029;-81
2021/06/18 09:24:42;;;;;;;2.42;1.50;;;;;;;36.47;25.38;94001.22;6084019;23;20017;-81
2021/06/18 09:27:09;;;;;;;10.18;1.60;;;;;;;35.31;26.27;94005.97;6114924;23;20018;-79
2021/06/18 09:29:35;;;;;;;2.15;1.80;;;;;;;34.85;27.81;93990.91;6079483;23;20022;-80
2021/06/18 09:32:06;;;;;;;2.13;1.88;;;;;;;35.07;28.16;93999.28;6117143;23;20041;-80
2021/06/18 09:37:27;;;;;;;2.30;2.05;;;;;;;34.40;28.44;93999.31;6118271;23;20045;-81
2021/06/18 09:40:10;;;;;;;4.15;2.10;;;;;;;34.17;28.98;93999.53;6122467;23;20006;-81
2021/06/18 09:42:45;;;;;;;2.40;1.75;;;;;;;34.22;29.09;93988.03;6081959;23;20018;-80
2021/06/18 09:45:12;;;;;;;5.28;2.40;;;;;;;34.17;28.44;93983.84;6110706;23;20017;-82
2021/06/18 09:47:39;;;;;;;3.53;2.00;;;;;;;33.94;29.06;93987.59;6108441;23;20018;-79
2021/06/18 09:50:13;;;;;;;2.22;1.90;;;;;;;33.76;29.00;93984.59;6112641;23;20022;-80
2021/06/18 09:52:40;;;;;;;;;;;;;;;33.45;29.72;93983.38;6116709;23;20093;-81
2021/06/18 09:55:06;;;;;;;2.20;2.00;;;;;;;33.29;29.89;93973.22;6110292;23;20258;-80
2021/06/18 09:57:42;;;;;;;4.53;1.70;;;;;;;33.27;29.91;93969.38;6111633;23;20093;-80
2021/06/18 10:00:12;;;;;;;2.63;1.83;;;;;;;33.24;29.63;93975.69;6109976;23;20024;-80
2021/06/18 10:02:46;;;;;;;1.85;1.48;;;;;;;33.39;29.21;93965.94;6109428;23;20025;-80
2021/06/18 10:05:14;;;;;;;3.00;1.85;;;;;;;33.53;29.31;93971.03;6079677;23;20018;-80
2021/06/18 10:07:41;;;;;;;3.00;1.63;;;;;;;33.50;27.52;93977.41;6113324;23;20021;-80
2021/06/18 10:10:10;;;;;;;1.77;1.30;;;;;;;33.31;28.09;93959.09;6082387;23;20006;-80
2021/06/18 10:12:36;;;;;;;5.65;1.52;;;;;;;33.38;28.94;93969.88;6111592;23;20001;-80
2021/06/18 10:15:07;;;;;;;1.63;1.45;;;;;;;33.28;28.29;93957.97;6108331;23;20461;-80
2021/06/18 10:17:37;;;;;;;4.30;1.45;;;;;;;33.25;28.44;93966.28;6107518;23;20455;-80
2021/06/18 10:20:16;;;;;;;1.38;1.27;;;;;;;33.14;30.05;93960.25;6143894;23;20059;-80
2021/06/18 10:23:07;;;;;;;2.10;1.90;;;;;;;32.73;29.46;93958.88;6108413;23;20071;-81
2021/06/18 10:25:36;;;;;;;2.17;1.52;;;;;;;32.26;29.35;93963.78;6147364;23;20014;-80
2021/06/18 10:28:08;;;;;;;2.55;1.10;;;;;;;32.57;29.63;93959.59;6114847;23;20005;-79
2021/06/18 10:30:35;;;;;;;1.88;1.25;;;;;;;32.59;29.49;93964.66;6142193;23;20013;-79
2021/06/18 10:33:21;;;;;;;7.50;1.70;;;;;;;32.62;29.78;93961.06;6140402;23;20409;-78
2021/06/18 10:35:52;;;;;;;1.65;1.50;;;;;;;32.59;30.57;93959.19;6141916;23;20028;-80
2021/06/18 10:38:29;;;;;;;3.15;1.42;;;;;;;32.80;28.88;93958.72;6143408;23;20076;-80
2021/06/18 10:40:56;;;;;;;2.50;1.80;;;;;;;32.65;29.86;93955.53;6146356;23;20014;-79
2021/06/18 10:43:31;;;;;;;3.65;1.95;;;;;;;32.31;32.05;93957.03;6140146;23;20462;-80
2021/06/18 10:46:00;;;;;;;2.13;1.92;;;;;;;32.13;31.42;93955.44;6153399;23;20373;-80
2021/06/18 10:48:51;;;;;;;3.25;1.70;;;;;;;32.15;31.42;93946.84;6139100;23;20415;-80
2021/06/18 10:51:26;;;;;;;6.22;2.35;;;;;;;32.07;31.89;93950.84;6135385;23;20063;-80
2021/06/18 10:53:54;;;;;;;2.58;1.75;;;;;;;31.79;32.99;93952.19;6142638;23;20022;-80
2021/06/18 10:56:20;;;;;;;2.67;1.73;;;;;;;31.59;32.96;93946.72;6140211;23;20019;-80
2021/06/18 10:59:05;;;;;;;2.80;1.75;;;;;;;31.29;32.73;93942.16;6147074;23;20407;-80
2021/06/18 11:01:34;;;;;;;4.00;2.28;;;;;;;31.27;33.25;93944.53;6149964;23;20017;-82
2021/06/18 11:04:00;;;;;;;4.18;1.98;;;;;;;31.17;34.11;93937.31;6141881;23;20016;-80
2021/06/18 11:06:52;;;;;;;4.70;2.40;;;;;;;30.91;33.99;93943.53;6141610;23;20017;-82
2021/06/18 11:09:46;;;;;;;4.05;2.42;;;;;;;31.14;33.89;93943.56;6141115;23;20072;-80
2021/06/18 11:12:24;;;;;;;7.82;2.47;;;;;;;31.16;33.49;93938.47;6114018;23;20523;-79
2021/06/18 11:15:27;;;;;;;4.10;2.47;;;;;;;31.30;35.05;93932.78;6142010;23;20017;-79
2021/06/18 11:18:15;;;;;;;4.45;2.22;;;;;;;31.01;35.24;93931.69;6100217;23;20372;-81
2021/06/18 11:20:40;;;;;;;3.80;2.15;;;;;;;31.21;35.39;93929.81;6141822;23;20403;-79
2021/06/18 11:23:42;;;;;;;4.50;2.40;;;;;;;31.02;34.31;93932.50;6141337;23;20021;-80
2021/06/18 11:26:11;;;;;;;2.40;2.20;;;;;;;30.99;35.13;93928.59;6136056;23;20266;-80
2021/06/18 11:28:46;;;;;;;5.00;1.90;;;;;;;31.04;34.94;93917.22;6141643;23;20013;-79
2021/06/18 11:31:21;;;;;;;4.72;3.15;;;;;;;30.78;36.14;93918.81;6147539;23;20380;-79
2021/06/18 11:33:51;;;;;;;4.70;2.45;;;;;;;30.77;36.59;93917.25;6153460;23;20005;-80
2021/06/18 11:36:17;;;;;;;5.53;2.42;;;;;;;30.59;37.28;93918.72;6139494;23;20013;-81
2021/06/18 11:38:47;;;;;;;15.00;3.50;;;;;;;30.54;36.88;93917.22;6113680;23;20380;-80
2021/06/18 11:41:15;;;;;;;5.80;3.58;;;;;;;29.75;37.09;93913.16;6113724;23;20017;-79